createdAt,value
2018-11-22T00:00:28.948Z,99.9
2018-11-22T00:01:38.107Z,99.9
2018-11-22T00:02:47.288Z,99.9
2018-11-22T00:03:56.461Z,99.9
2018-11-22T00:05:05.639Z,99.9
2018-11-22T00:06:14.843Z,99.9
2018-11-22T00:07:23.979Z,99.9
2018-11-22T00:08:33.185Z,99.9
2018-11-22T00:09:42.477Z,99.9
2018-11-22T00:10:51.532Z,99.9
2018-11-22T00:12:00.716Z,99.9
2018-11-22T00:13:09.890Z,99.9
2018-11-22T00:14:19.072Z,99.9
2018-11-22T00:15:28.268Z,99.9
2018-11-22T00:16:37.428Z,99.9
2018-11-22T00:17:46.623Z,99.7
2018-11-22T00:18:55.777Z,99.9
2018-11-22T00:20:04.992Z,99.9
2018-11-22T00:21:14.214Z,99.7
2018-11-22T00:22:23.320Z,99.9
2018-11-22T00:23:32.524Z,99.9
2018-11-22T00:24:41.705Z,99.7
2018-11-22T00:25:50.875Z,99.9
2018-11-22T00:27:00.071Z,99.4
2018-11-22T00:28:09.245Z,99.9
2018-11-22T00:29:18.413Z,99.9
2018-11-22T00:30:27.837Z,99.9
2018-11-22T00:31:36.790Z,99.9
2018-11-22T00:32:45.959Z,99.9
2018-11-22T00:33:55.261Z,99.7
2018-11-22T00:35:04.334Z,99.9
2018-11-22T00:36:13.549Z,99.9
2018-11-22T00:37:22.679Z,99.7
2018-11-22T00:38:31.870Z,99.5
2018-11-22T00:39:41.065Z,99.5
2018-11-22T00:40:50.219Z,99.2
2018-11-22T00:41:59.390Z,99.4
2018-11-22T00:43:08.588Z,99.6
2018-11-22T00:44:17.750Z,99.4
2018-11-22T00:45:26.924Z,98.9
2018-11-22T00:46:36.158Z,98.9
2018-11-22T00:47:45.288Z,99.3
2018-11-22T00:48:54.470Z,99.2
2018-11-22T00:50:03.654Z,99.4
2018-11-22T00:51:12.836Z,98.9
2018-11-22T00:52:22.017Z,99.1
2018-11-22T00:53:31.210Z,99.1
2018-11-22T00:54:40.384Z,98.9
2018-11-22T00:55:49.606Z,98.7
2018-11-22T00:56:58.750Z,98.9
2018-11-22T00:58:07.939Z,98.8
2018-11-22T00:59:17.113Z,99.5
2018-11-22T01:00:26.300Z,99.9
2018-11-22T01:01:35.481Z,99.9
2018-11-22T01:02:45.205Z,99.9
2018-11-22T01:03:53.875Z,99.3
2018-11-22T01:05:03.253Z,99.9
2018-11-22T01:06:12.219Z,99.9
2018-11-22T01:07:21.381Z,99.9
2018-11-22T01:08:30.570Z,99.2
2018-11-22T01:09:39.759Z,99.6
2018-11-22T01:10:49.061Z,99.7
2018-11-22T01:11:58.108Z,99.9
2018-11-22T01:13:07.320Z,99.9
2018-11-22T01:14:16.489Z,99.5
2018-11-22T01:15:25.786Z,99
2018-11-22T01:16:34.882Z,99.4
2018-11-22T01:17:44.026Z,98.4
2018-11-22T01:18:53.315Z,99.3
2018-11-22T01:20:02.393Z,99.1
2018-11-22T01:21:11.557Z,99.3
2018-11-22T01:22:20.760Z,98.9
2018-11-22T01:23:29.941Z,98.8
2018-11-22T01:24:39.120Z,99.1
2018-11-22T01:25:48.280Z,99.2
2018-11-22T01:26:57.504Z,98.6
2018-11-22T01:28:06.664Z,99.1
2018-11-22T01:29:15.836Z,98.9
2018-11-22T01:30:25.038Z,99
2018-11-22T01:31:34.205Z,99
2018-11-22T01:32:43.437Z,99.1
2018-11-22T01:33:52.592Z,98.9
2018-11-22T01:35:01.761Z,98.8
2018-11-22T01:36:10.963Z,98.9
2018-11-22T01:37:20.143Z,98.8
2018-11-22T01:38:29.323Z,99
2018-11-22T01:39:38.499Z,98.4
2018-11-22T01:40:47.675Z,98.8
2018-11-22T01:41:56.865Z,98.6
2018-11-22T01:43:06.210Z,98.5
2018-11-22T01:44:15.233Z,98.3
2018-11-22T01:45:24.425Z,98.7
2018-11-22T01:46:33.612Z,98.5
2018-11-22T01:47:42.788Z,98.7
2018-11-22T01:48:51.972Z,98.7
2018-11-22T01:50:01.158Z,98.6
2018-11-22T01:51:10.386Z,98.4
2018-11-22T01:52:19.518Z,98.4
2018-11-22T01:53:28.718Z,98.3
2018-11-22T01:54:37.981Z,98.6
2018-11-22T01:55:47.960Z,98.3
2018-11-22T01:56:56.991Z,98.6
2018-11-22T01:58:05.486Z,98
2018-11-22T01:59:14.644Z,98.5
2018-11-22T02:00:23.859Z,98
2018-11-22T02:01:33.009Z,98
2018-11-22T02:02:42.210Z,98.1
2018-11-22T02:03:51.403Z,98
2018-11-22T02:05:00.591Z,98.3
2018-11-22T02:06:09.760Z,98.6
2018-11-22T02:07:19.023Z,98.5
2018-11-22T02:08:28.141Z,98.3
2018-11-22T02:09:37.307Z,98.4
2018-11-22T02:10:46.523Z,98.2
2018-11-22T02:11:55.689Z,98.6
2018-11-22T02:13:04.894Z,98.4
2018-11-22T02:14:14.072Z,98.2
2018-11-22T02:15:23.249Z,98
2018-11-22T02:16:32.452Z,98.2
2018-11-22T02:17:41.614Z,98.5
2018-11-22T02:18:50.836Z,98.6
2018-11-22T02:20:00.023Z,98.4
2018-11-22T02:21:09.180Z,98.8
2018-11-22T02:22:18.374Z,98.6
2018-11-22T02:23:27.549Z,98
2018-11-22T02:24:36.740Z,98.9
2018-11-22T02:25:45.922Z,98.6
2018-11-22T02:26:55.134Z,98.3
2018-11-22T02:28:04.302Z,98.3
2018-11-22T02:29:13.502Z,98
2018-11-22T02:30:22.680Z,98.2
2018-11-22T02:31:31.895Z,98.2
2018-11-22T02:32:41.067Z,98
2018-11-22T02:33:50.261Z,98
2018-11-22T02:34:59.433Z,98.5
2018-11-22T02:36:08.613Z,98.3
2018-11-22T02:37:17.807Z,98.3
2018-11-22T02:38:26.977Z,98.5
2018-11-22T02:39:36.177Z,98.1
2018-11-22T02:40:45.365Z,98.3
2018-11-22T02:41:54.562Z,98.2
2018-11-22T02:43:03.744Z,98.2
2018-11-22T02:44:12.910Z,98.2
2018-11-22T02:45:22.112Z,98.1
2018-11-22T02:46:31.289Z,98
2018-11-22T02:47:40.502Z,98.2
2018-11-22T02:48:49.699Z,97.8
2018-11-22T02:49:58.876Z,97.8
2018-11-22T02:51:08.068Z,97.8
2018-11-22T02:52:17.275Z,98.3
2018-11-22T02:53:26.427Z,98
2018-11-22T02:54:35.620Z,98
2018-11-22T02:55:44.868Z,98
2018-11-22T02:56:53.996Z,98.2
2018-11-22T02:58:03.180Z,98.3
2018-11-22T02:59:12.451Z,97.9
2018-11-22T03:00:21.592Z,98
2018-11-22T03:01:30.776Z,98
2018-11-22T03:02:39.942Z,97.9
2018-11-22T03:03:49.139Z,97.7
2018-11-22T03:04:58.327Z,97.8
2018-11-22T03:06:07.518Z,97.7
2018-11-22T03:07:16.703Z,97.9
2018-11-22T03:08:25.905Z,97.8
2018-11-22T03:09:35.079Z,97.5
2018-11-22T03:10:44.396Z,97.5
2018-11-22T03:11:53.436Z,97.7
2018-11-22T03:13:02.687Z,97.6
2018-11-22T03:14:11.818Z,97.4
2018-11-22T03:15:21.009Z,97.6
2018-11-22T03:16:30.266Z,98
2018-11-22T03:17:39.388Z,97.9
2018-11-22T03:18:48.588Z,97.6
2018-11-22T03:19:57.764Z,97.6
2018-11-22T03:21:06.956Z,97.5
2018-11-22T03:22:16.151Z,97.8
2018-11-22T03:23:25.322Z,97.6
2018-11-22T03:24:34.516Z,97.5
2018-11-22T03:25:43.714Z,97.3
2018-11-22T03:26:52.912Z,97.7
2018-11-22T03:28:02.126Z,97.5
2018-11-22T03:29:11.908Z,97.3
2018-11-22T03:30:20.471Z,97.4
2018-11-22T03:31:30.388Z,97.4
2018-11-22T03:32:38.870Z,97.5
2018-11-22T03:33:48.017Z,97.1
2018-11-22T03:34:57.231Z,97.2
2018-11-22T03:36:06.425Z,97.4
2018-11-22T03:37:15.603Z,97.1
2018-11-22T03:38:24.857Z,97
2018-11-22T03:39:33.979Z,96.9
2018-11-22T03:40:43.186Z,97.3
2018-11-22T03:41:52.368Z,97.3
2018-11-22T03:43:01.553Z,97.4
2018-11-22T03:44:10.755Z,97.1
2018-11-22T03:45:19.962Z,97.1
2018-11-22T03:46:29.221Z,97.3
2018-11-22T03:47:38.301Z,97.5
2018-11-22T03:48:47.508Z,97.2
2018-11-22T03:49:56.703Z,97.1
2018-11-22T03:51:05.877Z,96.9
2018-11-22T03:52:15.056Z,97.3
2018-11-22T03:53:24.271Z,97.5
2018-11-22T03:54:33.466Z,97.3
2018-11-22T03:55:42.679Z,97
2018-11-22T03:56:51.842Z,97.3
2018-11-22T03:58:01.034Z,97.2
2018-11-22T03:59:10.232Z,97.2
2018-11-22T04:00:19.459Z,97.2
2018-11-22T04:01:28.638Z,97
2018-11-22T04:02:37.833Z,97.4
2018-11-22T04:03:46.970Z,96.9
2018-11-22T04:04:56.335Z,97
2018-11-22T04:06:05.362Z,97.4
2018-11-22T04:07:14.619Z,97.2
2018-11-22T04:08:23.753Z,97.6
2018-11-22T04:09:32.959Z,97.4
2018-11-22T04:10:42.338Z,97.5
2018-11-22T04:11:51.321Z,97.2
2018-11-22T04:13:00.525Z,97.3
2018-11-22T04:14:09.788Z,97.1
2018-11-22T04:15:18.913Z,97.6
2018-11-22T04:16:28.222Z,97.1
2018-11-22T04:17:37.297Z,97.4
2018-11-22T04:18:46.472Z,97.1
2018-11-22T04:19:55.640Z,97
2018-11-22T04:21:04.835Z,97.4
2018-11-22T04:22:14.030Z,97.4
2018-11-22T04:23:23.221Z,97.6
2018-11-22T04:24:32.604Z,97.3
2018-11-22T04:25:41.764Z,97.5
2018-11-22T04:26:50.776Z,97.3
2018-11-22T04:27:59.978Z,97.7
2018-11-22T04:29:09.158Z,97.3
2018-11-22T04:30:18.380Z,97.6
2018-11-22T04:31:27.549Z,97.1
2018-11-22T04:32:36.805Z,97
2018-11-22T04:33:45.946Z,97
2018-11-22T04:34:55.409Z,97.2
2018-11-22T04:36:04.337Z,96.8
2018-11-22T04:37:13.532Z,97.1
2018-11-22T04:38:22.699Z,97.2
2018-11-22T04:39:31.889Z,97.4
2018-11-22T04:40:41.194Z,97.1
2018-11-22T04:41:50.469Z,97.1
2018-11-22T04:42:59.521Z,96.6
2018-11-22T04:44:08.686Z,97.2
2018-11-22T04:45:17.891Z,96.2
2018-11-22T04:46:27.083Z,97
2018-11-22T04:47:36.284Z,97
2018-11-22T04:48:45.521Z,96.4
2018-11-22T04:49:54.642Z,96.8
2018-11-22T04:51:03.899Z,96.7
2018-11-22T04:52:13.028Z,96.8
2018-11-22T04:53:22.210Z,96.7
2018-11-22T04:54:31.461Z,96.6
2018-11-22T04:55:40.698Z,96.4
2018-11-22T04:56:49.777Z,96.8
2018-11-22T04:57:58.985Z,96.7
2018-11-22T04:59:08.183Z,96.2
2018-11-22T05:00:17.374Z,96.8
2018-11-22T05:01:26.968Z,96.5
2018-11-22T05:02:35.990Z,96.4
2018-11-22T05:03:44.966Z,96.7
2018-11-22T05:04:54.142Z,96.9
2018-11-22T05:06:03.389Z,97.1
2018-11-22T05:07:12.565Z,97
2018-11-22T05:08:21.933Z,97
2018-11-22T05:09:30.922Z,96.6
2018-11-22T05:10:40.139Z,97.1
2018-11-22T05:11:49.299Z,96.9
2018-11-22T05:12:58.579Z,96.8
2018-11-22T05:14:07.671Z,96.7
2018-11-22T05:15:16.853Z,97
2018-11-22T05:16:26.041Z,96.5
2018-11-22T05:17:35.244Z,96.7
2018-11-22T05:18:44.433Z,96.7
2018-11-22T05:19:53.768Z,97
2018-11-22T05:21:02.832Z,96.9
2018-11-22T05:22:13.236Z,97.1
2018-11-22T05:23:21.363Z,97.1
2018-11-22T05:24:30.420Z,97.2
2018-11-22T05:25:39.818Z,97.4
2018-11-22T05:26:48.862Z,97.7
2018-11-22T05:27:58.052Z,97.2
2018-11-22T05:29:12.682Z,97.8
2018-11-22T05:30:17.083Z,97.9
2018-11-22T05:31:26.169Z,98
2018-11-22T05:32:35.534Z,97.9
2018-11-22T05:33:43.939Z,98.1
2018-11-22T05:34:53.357Z,97.6
2018-11-22T05:36:02.466Z,97.9
2018-11-22T05:37:11.619Z,98
2018-11-22T05:38:20.899Z,98
2018-11-22T05:39:29.999Z,98
2018-11-22T05:40:39.143Z,98.3
2018-11-22T05:41:48.279Z,98
2018-11-22T05:42:57.509Z,97.8
2018-11-22T05:44:06.925Z,98
2018-11-22T05:45:15.905Z,98.2
2018-11-22T05:46:25.057Z,98.3
2018-11-22T05:47:34.275Z,98.2
2018-11-22T05:48:43.593Z,98.1
2018-11-22T05:49:52.739Z,98.5
2018-11-22T05:51:01.983Z,98.1
2018-11-22T05:52:11.244Z,97.8
2018-11-22T05:53:20.966Z,98
2018-11-22T05:54:29.398Z,98
2018-11-22T05:55:38.792Z,98
2018-11-22T05:56:47.856Z,98.1
2018-11-22T05:57:57.062Z,98.1
2018-11-22T05:59:06.264Z,98.3
2018-11-22T06:00:15.272Z,98.1
2018-11-22T06:01:24.452Z,97.4
2018-11-22T06:02:33.650Z,97.7
2018-11-22T06:03:42.934Z,97.1
2018-11-22T06:04:52.048Z,98.1
2018-11-22T06:06:01.234Z,97.9
2018-11-22T06:07:10.395Z,97.5
2018-11-22T06:08:19.603Z,97.7
2018-11-22T06:09:28.919Z,97.7
2018-11-22T06:10:37.999Z,97.3
2018-11-22T06:11:47.220Z,97.2
2018-11-22T06:12:56.356Z,96.8
2018-11-22T06:14:05.585Z,96.9
2018-11-22T06:15:14.777Z,96.9
2018-11-22T06:16:23.957Z,96.7
2018-11-22T06:17:33.139Z,96.8
2018-11-22T06:18:42.377Z,96.6
2018-11-22T06:19:51.515Z,96.6
2018-11-22T06:21:00.700Z,96.8
2018-11-22T06:22:09.908Z,96.4
2018-11-22T06:23:19.087Z,96.7
2018-11-22T06:24:28.297Z,97
2018-11-22T06:25:37.466Z,96.5
2018-11-22T06:26:46.680Z,96.4
2018-11-22T06:27:55.859Z,96.4
2018-11-22T06:29:05.036Z,96.1
2018-11-22T06:30:14.236Z,96.1
2018-11-22T06:31:23.482Z,96.4
2018-11-22T06:32:32.604Z,96
2018-11-22T06:33:41.804Z,96.6
2018-11-22T06:34:50.994Z,96.2
2018-11-22T06:36:00.192Z,96.8
2018-11-22T06:37:09.370Z,96.2
2018-11-22T06:38:18.560Z,96.2
2018-11-22T06:39:27.746Z,95.8
2018-11-22T06:40:36.944Z,96.2
2018-11-22T06:41:46.123Z,95.7
2018-11-22T06:42:55.374Z,96.3
2018-11-22T06:44:04.541Z,96
2018-11-22T06:45:13.827Z,95.8
2018-11-22T06:46:22.916Z,95.6
2018-11-22T06:47:32.089Z,95.8
2018-11-22T06:48:41.270Z,96.5
2018-11-22T06:49:50.467Z,96
2018-11-22T06:50:59.677Z,95.7
2018-11-22T06:52:08.847Z,95.6
2018-11-22T06:53:18.023Z,96.2
2018-11-22T06:54:27.245Z,95.6
2018-11-22T06:55:36.409Z,95.8
2018-11-22T06:56:45.745Z,95.9
2018-11-22T06:57:54.797Z,95.7
2018-11-22T06:59:03.977Z,95.6
2018-11-22T07:00:13.193Z,95.6
2018-11-22T07:01:22.377Z,95.9
2018-11-22T07:02:31.565Z,95.6
2018-11-22T07:03:40.766Z,95.6
2018-11-22T07:04:49.950Z,95.6
2018-11-22T07:05:59.144Z,95.5
2018-11-22T07:07:08.332Z,96.1
2018-11-22T07:08:17.534Z,96.4
2018-11-22T07:09:26.700Z,95.8
2018-11-22T07:10:35.924Z,95.6
2018-11-22T07:11:45.110Z,95.6
2018-11-22T07:12:54.302Z,95.6
2018-11-22T07:14:03.476Z,96
2018-11-22T07:15:12.667Z,95.6
2018-11-22T07:16:21.867Z,94.9
2018-11-22T07:17:31.161Z,95.6
2018-11-22T07:18:40.256Z,95.6
2018-11-22T07:19:49.454Z,95.6
2018-11-22T07:20:58.639Z,95.6
2018-11-22T07:22:07.863Z,95.7
2018-11-22T07:23:16.997Z,95.5
2018-11-22T07:24:26.250Z,95.6
2018-11-22T07:25:35.405Z,95.1
2018-11-22T07:26:44.701Z,95
2018-11-22T07:27:53.801Z,95.5
2018-11-22T07:29:02.984Z,95.4
2018-11-22T07:30:12.227Z,95.5
2018-11-22T07:31:21.425Z,95.5
2018-11-22T07:32:30.538Z,95.6
2018-11-22T07:33:39.763Z,95.6
2018-11-22T07:34:49.048Z,95.3
2018-11-22T07:35:58.116Z,94.9
2018-11-22T07:37:07.325Z,95.1
2018-11-22T07:38:16.580Z,95.1
2018-11-22T07:39:25.728Z,95.1
2018-11-22T07:40:34.928Z,94.9
2018-11-22T07:41:44.085Z,95.1
2018-11-22T07:42:53.290Z,94.9
2018-11-22T07:44:02.464Z,94.7
2018-11-22T07:45:11.645Z,94.6
2018-11-22T07:46:20.838Z,95
2018-11-22T07:47:30.038Z,94.8
2018-11-22T07:48:39.234Z,94.5
2018-11-22T07:49:48.444Z,94.3
2018-11-22T07:50:57.609Z,94.5
2018-11-22T07:52:06.806Z,94.1
2018-11-22T07:53:16.155Z,94
2018-11-22T07:54:25.187Z,94.3
2018-11-22T07:55:34.365Z,94.3
2018-11-22T07:56:43.577Z,93.8
2018-11-22T07:57:52.773Z,94.2
2018-11-22T07:59:01.946Z,94.2
2018-11-22T08:00:11.134Z,94.2
2018-11-22T08:01:20.317Z,94.3
2018-11-22T08:02:29.539Z,94.3
2018-11-22T08:03:38.712Z,94.1
2018-11-22T08:04:47.930Z,94
2018-11-22T08:05:57.080Z,94
2018-11-22T08:07:06.270Z,94
2018-11-22T08:08:15.462Z,94.6
2018-11-22T08:09:24.670Z,94.5
2018-11-22T08:10:33.847Z,94.2
2018-11-22T08:11:43.045Z,94
2018-11-22T08:12:52.396Z,94.1
2018-11-22T08:14:01.436Z,93.7
2018-11-22T08:15:10.686Z,94.2
2018-11-22T08:16:19.796Z,94.4
2018-11-22T08:17:28.984Z,94.5
2018-11-22T08:18:38.213Z,94.2
2018-11-22T08:19:47.383Z,94.1
2018-11-22T08:20:56.589Z,94.6
2018-11-22T08:22:05.791Z,94.7
2018-11-22T08:23:14.967Z,94.3
2018-11-22T08:24:24.173Z,94.3
2018-11-22T08:25:33.343Z,94.3
2018-11-22T08:26:42.536Z,94.6
2018-11-22T08:27:51.745Z,93.6
2018-11-22T08:29:00.923Z,93.9
2018-11-22T08:30:10.352Z,94
2018-11-22T08:31:19.295Z,93.8
2018-11-22T08:32:28.513Z,93.2
2018-11-22T08:33:37.769Z,93.5
2018-11-22T08:34:46.888Z,93.3
2018-11-22T08:35:56.086Z,93.7
2018-11-22T08:37:05.304Z,93.3
2018-11-22T08:38:14.476Z,93.6
2018-11-22T08:39:23.654Z,93.1
2018-11-22T08:40:32.879Z,93.2
2018-11-22T08:42:55.355Z,93.8
2018-11-22T08:44:00.422Z,93.7
2018-11-22T08:45:09.618Z,93.2
2018-11-22T08:46:18.850Z,93.1
2018-11-22T08:47:28.072Z,93
2018-11-22T08:48:37.208Z,93.1
2018-11-22T08:49:46.378Z,93.1
2018-11-22T08:50:55.590Z,93.1
2018-11-22T08:52:04.879Z,93.1
2018-11-22T08:53:13.969Z,93.1
2018-11-22T08:54:23.170Z,92.5
2018-11-22T08:55:32.358Z,92.4
2018-11-22T08:56:41.631Z,92.5
2018-11-22T08:57:50.746Z,92.7
2018-11-22T08:58:59.925Z,92.9
2018-11-22T09:00:09.163Z,92.9
2018-11-22T09:01:18.398Z,92.9
2018-11-22T09:02:27.515Z,92.8
2018-11-22T09:03:36.711Z,92.2
2018-11-22T09:04:45.897Z,92.1
2018-11-22T09:05:55.095Z,92.1
2018-11-22T09:07:04.289Z,92.1
2018-11-22T09:08:13.553Z,92.4
2018-11-22T09:09:22.676Z,92.3
2018-11-22T09:10:31.907Z,92.1
2018-11-22T09:11:41.081Z,91.9
2018-11-22T09:12:50.250Z,92.1
2018-11-22T09:13:59.458Z,91.8
2018-11-22T09:15:08.664Z,91.5
2018-11-22T09:16:17.836Z,91.7
2018-11-22T09:17:27.033Z,92.1
2018-11-22T09:18:36.246Z,92
2018-11-22T09:19:45.452Z,91.9
2018-11-22T09:20:54.668Z,91.4
2018-11-22T09:22:03.820Z,91.8
2018-11-22T09:23:13.029Z,92
2018-11-22T09:24:24.505Z,91.9
2018-11-22T09:25:31.417Z,91.6
2018-11-22T09:26:40.636Z,91.9
2018-11-22T09:27:49.833Z,91.7
2018-11-22T09:28:59.019Z,91.8
2018-11-22T09:30:08.207Z,91.7
2018-11-22T09:31:17.403Z,91.6
2018-11-22T09:32:26.597Z,91.3
2018-11-22T09:33:35.791Z,91.4
2018-11-22T09:34:45.046Z,91.4
2018-11-22T09:35:54.192Z,91.1
2018-11-22T09:37:03.413Z,91.6
2018-11-22T09:38:12.609Z,91.4
2018-11-22T09:39:21.800Z,91.3
2018-11-22T09:40:30.957Z,91.5
2018-11-22T09:41:40.177Z,91.6
2018-11-22T09:42:49.543Z,91.4
2018-11-22T09:43:58.591Z,91.2
2018-11-22T09:45:07.772Z,91.5
2018-11-22T09:46:16.979Z,91.5
2018-11-22T09:47:26.170Z,91.5
2018-11-22T09:48:35.449Z,91.2
2018-11-22T09:49:44.571Z,91
2018-11-22T09:50:55.025Z,91.3
2018-11-22T09:52:02.955Z,91.6
2018-11-22T09:53:12.148Z,91.5
2018-11-22T09:54:21.366Z,91.2
2018-11-22T09:55:30.552Z,91.4
2018-11-22T09:56:39.766Z,91.4
2018-11-22T09:57:48.940Z,91.7
2018-11-22T09:58:58.207Z,91.6
2018-11-22T10:00:07.337Z,91.7
2018-11-22T10:01:16.526Z,91.8
2018-11-22T10:02:25.739Z,91.2
2018-11-22T10:03:34.939Z,91.2
2018-11-22T10:04:44.349Z,91.6
2018-11-22T10:05:53.626Z,91.4
2018-11-22T10:07:02.518Z,91.3
2018-11-22T10:08:11.735Z,91.6
2018-11-22T10:09:21.233Z,91.4
2018-11-22T10:10:30.305Z,91.2
2018-11-22T10:11:39.331Z,90.8
2018-11-22T10:12:48.542Z,90.9
2018-11-22T10:13:57.748Z,91.4
2018-11-22T10:15:06.957Z,91.3
2018-11-22T10:16:16.159Z,91.2
2018-11-22T10:17:25.321Z,91.4
2018-11-22T10:18:34.672Z,91.4
2018-11-22T10:19:43.940Z,91.3
2018-11-22T10:20:52.930Z,91
2018-11-22T10:22:02.122Z,90.8
2018-11-22T10:23:11.368Z,91.1
2018-11-22T10:24:20.678Z,91.2
2018-11-22T10:25:29.748Z,91.3
2018-11-22T10:26:38.941Z,91.1
2018-11-22T10:27:48.162Z,91.7
2018-11-22T10:28:57.415Z,91.6
2018-11-22T10:30:06.590Z,91.5
2018-11-22T10:31:15.731Z,91.4
2018-11-22T10:32:24.961Z,91.1
2018-11-22T10:33:34.178Z,91.1
2018-11-22T10:34:43.486Z,91.1
2018-11-22T10:35:52.577Z,91
2018-11-22T10:37:01.781Z,91.1
2018-11-22T10:38:11.044Z,91.1
2018-11-22T10:40:29.411Z,90.8
2018-11-22T10:41:38.585Z,91.7
2018-11-22T10:42:47.830Z,91.4
2018-11-22T10:43:56.994Z,91.7
2018-11-22T10:45:06.204Z,92.4
2018-11-22T10:46:15.416Z,92.2
2018-11-22T10:47:24.624Z,92
2018-11-22T10:48:33.810Z,91.5
2018-11-22T10:49:43.045Z,91.8
2018-11-22T10:50:52.236Z,92
2018-11-22T10:52:01.478Z,91.9
2018-11-22T10:53:10.668Z,92
2018-11-22T10:54:19.851Z,92.2
2018-11-22T10:55:29.053Z,91.7
2018-11-22T10:56:38.278Z,91.8
2018-11-22T10:57:53.945Z,91.7
2018-11-22T10:58:56.670Z,92.1
2018-11-22T11:00:05.893Z,91.6
2018-11-22T11:01:15.100Z,92.2
2018-11-22T11:02:24.342Z,92.1
2018-11-22T11:03:33.498Z,92
2018-11-22T11:04:42.699Z,92.1
2018-11-22T11:05:51.915Z,91.8
2018-11-22T11:07:01.141Z,91.3
2018-11-22T11:08:10.318Z,91.7
2018-11-22T11:09:19.544Z,91.9
2018-11-22T11:10:28.743Z,92.3
2018-11-22T11:11:37.954Z,92.6
2018-11-22T11:12:47.137Z,92.1
2018-11-22T11:13:56.361Z,91.7
2018-11-22T11:15:05.586Z,92.1
2018-11-22T11:16:14.756Z,91.7
2018-11-22T11:17:23.981Z,92.3
2018-11-22T11:18:33.159Z,92.1
2018-11-22T11:19:42.486Z,92.4
2018-11-22T11:20:51.580Z,92.1
2018-11-22T11:22:00.763Z,92.2
2018-11-22T11:23:09.987Z,92.6
2018-11-22T11:24:19.199Z,92.4
2018-11-22T11:25:28.472Z,92.1
2018-11-22T11:26:37.670Z,91.9
2018-11-22T11:27:46.819Z,91.7
2018-11-22T11:28:56.010Z,91.5
2018-11-22T11:30:05.226Z,91.8
2018-11-22T11:31:14.457Z,91.7
2018-11-22T11:32:23.637Z,91.9
2018-11-22T11:33:32.831Z,91.9
2018-11-22T11:34:42.129Z,92
2018-11-22T11:35:51.261Z,92
2018-11-22T11:37:00.456Z,92.4
2018-11-22T11:38:09.780Z,92.1
2018-11-22T11:39:18.872Z,92.3
2018-11-22T11:40:28.080Z,91.9
2018-11-22T11:41:37.551Z,91.8
2018-11-22T11:42:46.653Z,91.2
2018-11-22T11:43:55.727Z,91.1
2018-11-22T11:45:04.918Z,91.2
2018-11-22T11:46:14.144Z,91.6
2018-11-22T11:47:23.318Z,92
2018-11-22T11:48:32.809Z,91.5
2018-11-22T11:49:41.780Z,91.4
2018-11-22T11:50:51.064Z,91.3
2018-11-22T11:52:00.194Z,91.1
2018-11-22T11:53:09.362Z,91
2018-11-22T11:54:18.618Z,91.3
2018-11-22T11:55:27.836Z,91.8
2018-11-22T11:56:37.051Z,91.6
2018-11-22T11:57:46.223Z,91.7
2018-11-22T11:58:55.715Z,91.6
2018-11-22T12:00:04.660Z,92.3
2018-11-22T12:01:13.944Z,92.2
2018-11-22T12:02:23.265Z,91.8
2018-11-22T12:03:32.281Z,91.8
2018-11-22T12:04:41.527Z,91.4
2018-11-22T12:05:50.695Z,91.7
2018-11-22T12:06:59.903Z,91.4
2018-11-22T12:08:09.119Z,91
2018-11-22T12:09:18.326Z,90.8
2018-11-22T12:10:27.568Z,91.2
2018-11-22T12:11:36.764Z,91
2018-11-22T12:12:45.996Z,90.9
2018-11-22T12:13:55.242Z,91.2
2018-11-22T12:15:04.454Z,91.5
2018-11-22T12:16:13.612Z,91.6
2018-11-22T12:17:23.004Z,91.7
2018-11-22T12:18:37.209Z,91.7
2018-11-22T12:19:41.270Z,91.4
2018-11-22T12:20:50.438Z,91.1
2018-11-22T12:21:59.684Z,91.4
2018-11-22T12:23:08.822Z,90.8
2018-11-22T12:24:18.005Z,90.7
2018-11-22T12:25:27.259Z,91.1
2018-11-22T12:26:36.481Z,91.3
2018-11-22T12:27:45.991Z,91.5
2018-11-22T12:28:54.885Z,91.9
2018-11-22T12:30:04.320Z,91.9
2018-11-22T12:31:13.290Z,91.4
2018-11-22T12:32:22.474Z,91.4
2018-11-22T12:33:31.714Z,91.5
2018-11-22T12:34:41.208Z,91.7
2018-11-22T12:35:50.144Z,91.7
2018-11-22T12:36:59.364Z,91.6
2018-11-22T12:38:08.552Z,91.5
2018-11-22T12:39:17.848Z,91
2018-11-22T12:40:26.982Z,91.8
2018-11-22T12:41:36.155Z,92.2
2018-11-22T12:42:45.348Z,92.2
2018-11-22T12:43:54.579Z,92.1
2018-11-22T12:45:03.787Z,91.9
2018-11-22T12:46:13.256Z,92
2018-11-22T12:47:22.210Z,92.1
2018-11-22T12:48:31.394Z,92.1
2018-11-22T12:49:40.610Z,91.9
2018-11-22T12:50:49.804Z,92.3
2018-11-22T12:51:59.179Z,92.3
2018-11-22T12:53:08.223Z,92.6
2018-11-22T12:54:17.452Z,92.7
2018-11-22T12:55:26.670Z,92.7
2018-11-22T12:56:35.859Z,92.6
2018-11-22T12:57:45.048Z,92.2
2018-11-22T12:58:54.364Z,92.1
2018-11-22T13:00:03.466Z,92.1
2018-11-22T13:01:12.727Z,92.5
2018-11-22T13:02:21.902Z,92.7
2018-11-22T13:03:31.236Z,92.6
2018-11-22T13:04:40.296Z,93.2
2018-11-22T13:05:49.468Z,93.2
2018-11-22T13:06:58.681Z,92.3
2018-11-22T13:08:08.132Z,92.5
2018-11-22T13:09:17.070Z,92.9
2018-11-22T13:10:26.379Z,92.6
2018-11-22T13:11:35.714Z,92.4
2018-11-22T13:12:44.694Z,93.1
2018-11-22T13:13:53.938Z,93
2018-11-22T13:15:03.127Z,93.2
2018-11-22T13:16:12.418Z,92.9
2018-11-22T13:17:21.486Z,92.8
2018-11-22T13:18:30.695Z,93.1
2018-11-22T13:19:39.916Z,93.2
2018-11-22T13:20:49.145Z,93.2
2018-11-22T13:21:58.448Z,93.2
2018-11-22T13:23:07.565Z,93.2
2018-11-22T13:24:16.770Z,93.2
2018-11-22T13:25:26.127Z,93.2
2018-11-22T13:26:35.149Z,92.9
2018-11-22T13:27:45.321Z,92.9
2018-11-22T13:28:53.721Z,92.8
2018-11-22T13:30:02.889Z,93.2
2018-11-22T13:31:12.035Z,92.8
2018-11-22T13:32:21.734Z,93.1
2018-11-22T13:33:30.403Z,93.2
2018-11-22T13:34:39.748Z,93
2018-11-22T13:35:49.028Z,93.1
2018-11-22T13:36:58.001Z,92.9
2018-11-22T13:38:07.258Z,93.2
2018-11-22T13:39:16.404Z,93.2
2018-11-22T13:40:25.642Z,93.2
2018-11-22T13:41:34.757Z,93.2
2018-11-22T13:42:44.031Z,93.2
2018-11-22T13:43:53.202Z,93.2
2018-11-22T13:45:02.462Z,92.9
2018-11-22T13:46:11.737Z,92.6
2018-11-22T13:47:20.836Z,93
2018-11-22T13:48:29.985Z,92.9
2018-11-22T13:49:39.188Z,92.8
2018-11-22T13:50:48.383Z,93.2
2018-11-22T13:51:57.655Z,92.9
2018-11-22T13:53:06.789Z,92.7
2018-11-22T13:54:15.984Z,93.2
2018-11-22T13:55:25.212Z,93.2
2018-11-22T13:56:34.372Z,93.4
2018-11-22T13:57:43.653Z,93.3
2018-11-22T13:58:52.793Z,93.2
2018-11-22T14:00:02.079Z,93.2
2018-11-22T14:01:11.190Z,93.2
2018-11-22T14:02:20.492Z,93.7
2018-11-22T14:03:29.610Z,93.8
2018-11-22T14:04:38.864Z,93.2
2018-11-22T14:05:48.014Z,93.4
2018-11-22T14:06:57.205Z,94.2
2018-11-22T14:08:06.474Z,93.9
2018-11-22T14:09:15.802Z,93.6
2018-11-22T14:10:24.855Z,93.6
2018-11-22T14:11:34.094Z,93.5
2018-11-22T14:12:43.178Z,93.7
2018-11-22T14:13:52.580Z,93.9
2018-11-22T14:15:01.619Z,93.9
2018-11-22T14:16:10.803Z,94.3
2018-11-22T14:17:19.992Z,94.2
2018-11-22T14:18:29.214Z,94.4
2018-11-22T14:19:38.440Z,94.3
2018-11-22T14:20:47.613Z,94.7
2018-11-22T14:21:56.851Z,94.6
2018-11-22T14:23:06.005Z,94.9
2018-11-22T14:24:15.247Z,94.8
2018-11-22T14:25:24.405Z,94.8
2018-11-22T14:26:33.591Z,94.5
2018-11-22T14:27:43.061Z,94.6
2018-11-22T14:28:52.253Z,94.5
2018-11-22T14:30:01.194Z,94.6
2018-11-22T14:31:10.401Z,94.8
2018-11-22T14:32:19.575Z,95.3
2018-11-22T14:33:28.828Z,95
2018-11-22T14:34:38.016Z,95
2018-11-22T14:35:47.240Z,95.6
2018-11-22T14:36:56.410Z,95.6
2018-11-22T14:38:05.589Z,95.6
2018-11-22T14:39:14.745Z,94.8
2018-11-22T14:40:23.961Z,95.2
2018-11-22T14:41:33.170Z,95
2018-11-22T14:42:42.502Z,95.2
2018-11-22T14:43:51.614Z,95
2018-11-22T14:45:00.761Z,95.1
2018-11-22T14:46:09.928Z,95.6
2018-11-22T14:47:19.136Z,95.3
2018-11-22T14:48:28.329Z,95.1
2018-11-22T14:49:37.526Z,95.3
2018-11-22T14:50:46.888Z,95.1
2018-11-22T14:51:55.918Z,95.4
2018-11-22T14:53:05.131Z,94.8
2018-11-22T14:54:14.350Z,95.4
2018-11-22T14:55:23.806Z,95.6
2018-11-22T14:56:32.789Z,95.5
2018-11-22T14:57:41.923Z,95.1
2018-11-22T14:58:51.104Z,95
2018-11-22T15:00:00.309Z,95.1
2018-11-22T15:01:09.540Z,95.1
2018-11-22T15:02:18.718Z,95.6
2018-11-22T15:03:27.879Z,95.6
2018-11-22T15:04:37.093Z,95.6
2018-11-22T15:05:46.290Z,95.6
2018-11-22T15:06:55.516Z,95.6
2018-11-22T15:08:04.693Z,95.6
2018-11-22T15:09:14.235Z,95.6
2018-11-22T15:10:23.042Z,95.6
2018-11-22T15:11:32.234Z,94.9
2018-11-22T15:12:41.441Z,95.1
2018-11-22T15:13:50.661Z,95.3
2018-11-22T15:14:59.829Z,95.2
2018-11-22T15:16:09.058Z,95.6
2018-11-22T15:17:18.248Z,95.3
2018-11-22T15:18:27.491Z,95.6
2018-11-22T15:19:36.626Z,95.6
2018-11-22T15:20:45.791Z,95.2
2018-11-22T15:21:54.991Z,95.6
2018-11-22T15:23:04.319Z,95.6
2018-11-22T15:24:13.375Z,95.2
2018-11-22T15:25:22.604Z,95.1
2018-11-22T15:26:31.782Z,95
2018-11-22T15:27:40.970Z,95
2018-11-22T15:28:50.314Z,95.3
2018-11-22T15:29:59.545Z,94.9